sensor_id;sensor_type;location;lat;lon;timestamp;temperature;humidity
7622;DHT22;3852;52.284;8.032;2022-08-03T00:00:07;20.10;99.90
7622;DHT22;3852;52.284;8.032;2022-08-03T00:02:34;20.10;99.90
7622;DHT22;3852;52.284;8.032;2022-08-03T00:04:59;20.00;99.90
7622;DHT22;3852;52.284;8.032;2022-08-03T00:07:25;20.00;99.90
7622;DHT22;3852;52.284;8.032;2022-08-03T00:09:55;20.00;99.90
7622;DHT22;3852;52.284;8.032;2022-08-03T00:12:24;20.20;99.90
7622;DHT22;3852;52.284;8.032;2022-08-03T00:14:50;20.10;99.90
7622;DHT22;3852;52.284;8.032;2022-08-03T00:17:15;20.10;99.90
7622;DHT22;3852;52.284;8.032;2022-08-03T00:19:43;20.10;99.90
7622;DHT22;3852;52.284;8.032;2022-08-03T00:22:09;20.10;99.90
7622;DHT22;3852;52.284;8.032;2022-08-03T00:24:35;20.00;99.90
7622;DHT22;3852;52.284;8.032;2022-08-03T00:27:01;20.00;99.90
7622;DHT22;3852;52.284;8.032;2022-08-03T00:29:27;20.10;99.90
7622;DHT22;3852;52.284;8.032;2022-08-03T00:31:52;20.00;99.90
7622;DHT22;3852;52.284;8.032;2022-08-03T00:34:18;20.00;99.90
7622;DHT22;3852;52.284;8.032;2022-08-03T00:36:44;20.00;99.90
7622;DHT22;3852;52.284;8.032;2022-08-03T00:39:10;19.90;99.90
7622;DHT22;3852;52.284;8.032;2022-08-03T00:41:36;19.90;99.90
7622;DHT22;3852;52.284;8.032;2022-08-03T00:44:02;19.80;99.90
7622;DHT22;3852;52.284;8.032;2022-08-03T00:46:27;19.80;99.90
7622;DHT22;3852;52.284;8.032;2022-08-03T00:48:53;19.70;99.90
7622;DHT22;3852;52.284;8.032;2022-08-03T00:51:20;19.60;99.90
7622;DHT22;3852;52.284;8.032;2022-08-03T00:53:50;19.70;99.90
7622;DHT22;3852;52.284;8.032;2022-08-03T00:56:18;19.60;99.90
7622;DHT22;3852;52.284;8.032;2022-08-03T00:58:45;19.60;99.90
7622;DHT22;3852;52.284;8.032;2022-08-03T01:01:14;19.50;99.90
7622;DHT22;3852;52.284;8.032;2022-08-03T01:03:40;19.50;99.90
7622;DHT22;3852;52.284;8.032;2022-08-03T01:06:18;19.40;99.90
7622;DHT22;3852;52.284;8.032;2022-08-03T01:12:02;19.30;99.90
7622;DHT22;3852;52.284;8.032;2022-08-03T01:14:43;19.30;99.90
7622;DHT22;3852;52.284;8.032;2022-08-03T01:17:31;19.30;99.90
7622;DHT22;3852;52.284;8.032;2022-08-03T01:20:07;19.20;99.90
7622;DHT22;3852;52.284;8.032;2022-08-03T01:23:02;19.20;99.90
7622;DHT22;3852;52.284;8.032;2022-08-03T01:28:58;19.20;99.90
7622;DHT22;3852;52.284;8.032;2022-08-03T01:31:36;19.20;99.90
7622;DHT22;3852;52.284;8.032;2022-08-03T01:34:07;19.20;99.90
7622;DHT22;3852;52.284;8.032;2022-08-03T01:36:39;19.20;99.90
7622;DHT22;3852;52.284;8.032;2022-08-03T01:39:08;19.10;99.90
7622;DHT22;3852;52.284;8.032;2022-08-03T01:41:57;19.10;99.90
7622;DHT22;3852;52.284;8.032;2022-08-03T01:44:29;19.00;99.90
7622;DHT22;3852;52.284;8.032;2022-08-03T01:47:02;19.00;99.90
7622;DHT22;3852;52.284;8.032;2022-08-03T01:49:32;18.90;99.90
7622;DHT22;3852;52.284;8.032;2022-08-03T01:52:02;18.90;99.90
7622;DHT22;3852;52.284;8.032;2022-08-03T01:54:31;18.90;99.90
7622;DHT22;3852;52.284;8.032;2022-08-03T01:57:07;18.90;99.90
7622;DHT22;3852;52.284;8.032;2022-08-03T01:59:35;18.90;99.90
7622;DHT22;3852;52.284;8.032;2022-08-03T02:02:05;18.80;99.90
7622;DHT22;3852;52.284;8.032;2022-08-03T02:04:32;18.80;99.90
7622;DHT22;3852;52.284;8.032;2022-08-03T02:07:00;18.80;99.90
7622;DHT22;3852;52.284;8.032;2022-08-03T02:09:27;18.80;99.90
7622;DHT22;3852;52.284;8.032;2022-08-03T02:11:54;18.70;99.90
7622;DHT22;3852;52.284;8.032;2022-08-03T02:14:22;18.80;99.90
7622;DHT22;3852;52.284;8.032;2022-08-03T02:16:49;18.70;99.90
7622;DHT22;3852;52.284;8.032;2022-08-03T02:19:17;18.60;99.90
7622;DHT22;3852;52.284;8.032;2022-08-03T02:21:45;18.60;99.90
7622;DHT22;3852;52.284;8.032;2022-08-03T02:24:11;18.60;99.90
7622;DHT22;3852;52.284;8.032;2022-08-03T02:26:39;18.60;99.90
7622;DHT22;3852;52.284;8.032;2022-08-03T02:29:10;18.60;99.90
7622;DHT22;3852;52.284;8.032;2022-08-03T02:31:38;18.60;99.90
7622;DHT22;3852;52.284;8.032;2022-08-03T02:34:08;18.60;99.90
7622;DHT22;3852;52.284;8.032;2022-08-03T02:36:38;18.60;99.90
7622;DHT22;3852;52.284;8.032;2022-08-03T02:39:08;18.60;99.90
7622;DHT22;3852;52.284;8.032;2022-08-03T02:41:47;18.60;99.90
7622;DHT22;3852;52.284;8.032;2022-08-03T02:44:19;18.50;99.90
7622;DHT22;3852;52.284;8.032;2022-08-03T02:46:48;18.60;99.90
7622;DHT22;3852;52.284;8.032;2022-08-03T02:49:20;18.50;99.90
7622;DHT22;3852;52.284;8.032;2022-08-03T02:51:46;18.50;99.90
7622;DHT22;3852;52.284;8.032;2022-08-03T02:54:15;18.50;99.90
7622;DHT22;3852;52.284;8.032;2022-08-03T02:56:44;18.50;99.90
7622;DHT22;3852;52.284;8.032;2022-08-03T02:59:11;18.50;99.90
7622;DHT22;3852;52.284;8.032;2022-08-03T03:01:38;18.50;99.90
7622;DHT22;3852;52.284;8.032;2022-08-03T03:04:05;18.40;99.90
7622;DHT22;3852;52.284;8.032;2022-08-03T03:06:32;18.40;99.90
7622;DHT22;3852;52.284;8.032;2022-08-03T03:08:58;18.40;99.90
7622;DHT22;3852;52.284;8.032;2022-08-03T03:11:25;18.30;99.90
7622;DHT22;3852;52.284;8.032;2022-08-03T03:13:52;18.30;99.90
7622;DHT22;3852;52.284;8.032;2022-08-03T03:16:18;18.30;99.90
7622;DHT22;3852;52.284;8.032;2022-08-03T03:18:46;18.30;99.90
7622;DHT22;3852;52.284;8.032;2022-08-03T03:21:17;18.30;99.90
7622;DHT22;3852;52.284;8.032;2022-08-03T03:23:44;18.20;99.90
7622;DHT22;3852;52.284;8.032;2022-08-03T03:26:13;18.20;99.90
7622;DHT22;3852;52.284;8.032;2022-08-03T03:28:39;18.20;99.90
7622;DHT22;3852;52.284;8.032;2022-08-03T03:31:06;18.20;99.90
7622;DHT22;3852;52.284;8.032;2022-08-03T03:33:33;18.30;99.90
7622;DHT22;3852;52.284;8.032;2022-08-03T03:36:00;18.30;99.90
7622;DHT22;3852;52.284;8.032;2022-08-03T03:38:26;18.30;99.90
7622;DHT22;3852;52.284;8.032;2022-08-03T03:40:53;18.30;99.90
7622;DHT22;3852;52.284;8.032;2022-08-03T03:43:19;18.30;99.90
7622;DHT22;3852;52.284;8.032;2022-08-03T03:45:48;18.20;99.90
7622;DHT22;3852;52.284;8.032;2022-08-03T03:48:14;18.20;99.90
7622;DHT22;3852;52.284;8.032;2022-08-03T03:50:40;18.20;99.90
7622;DHT22;3852;52.284;8.032;2022-08-03T03:53:09;18.20;99.90
7622;DHT22;3852;52.284;8.032;2022-08-03T03:55:37;18.20;99.90
7622;DHT22;3852;52.284;8.032;2022-08-03T03:58:03;18.10;99.90
7622;DHT22;3852;52.284;8.032;2022-08-03T04:00:30;18.20;99.90
7622;DHT22;3852;52.284;8.032;2022-08-03T04:02:56;18.20;99.90
7622;DHT22;3852;52.284;8.032;2022-08-03T04:05:22;18.20;99.90
7622;DHT22;3852;52.284;8.032;2022-08-03T04:08:11;18.20;99.90
7622;DHT22;3852;52.284;8.032;2022-08-03T04:13:53;18.20;99.90
7622;DHT22;3852;52.284;8.032;2022-08-03T04:16:35;18.30;99.90
7622;DHT22;3852;52.284;8.032;2022-08-03T04:19:12;18.30;99.90
7622;DHT22;3852;52.284;8.032;2022-08-03T04:21:42;18.30;99.90
7622;DHT22;3852;52.284;8.032;2022-08-03T04:24:10;18.30;99.90
7622;DHT22;3852;52.284;8.032;2022-08-03T04:26:40;18.30;99.90
7622;DHT22;3852;52.284;8.032;2022-08-03T04:29:09;18.30;99.90
7622;DHT22;3852;52.284;8.032;2022-08-03T04:31:37;18.30;99.90
7622;DHT22;3852;52.284;8.032;2022-08-03T04:34:04;18.30;99.90
7622;DHT22;3852;52.284;8.032;2022-08-03T04:36:37;18.30;99.90
7622;DHT22;3852;52.284;8.032;2022-08-03T04:39:21;18.30;99.90
7622;DHT22;3852;52.284;8.032;2022-08-03T04:41:53;18.30;99.90
7622;DHT22;3852;52.284;8.032;2022-08-03T04:44:22;18.30;99.90
7622;DHT22;3852;52.284;8.032;2022-08-03T04:46:49;18.30;99.90
7622;DHT22;3852;52.284;8.032;2022-08-03T04:49:16;18.30;99.90
7622;DHT22;3852;52.284;8.032;2022-08-03T04:51:43;18.40;99.90
7622;DHT22;3852;52.284;8.032;2022-08-03T04:54:12;18.40;99.90
7622;DHT22;3852;52.284;8.032;2022-08-03T04:56:39;18.50;99.90
7622;DHT22;3852;52.284;8.032;2022-08-03T04:59:06;18.50;99.90
7622;DHT22;3852;52.284;8.032;2022-08-03T05:01:32;18.50;99.90
7622;DHT22;3852;52.284;8.032;2022-08-03T05:03:58;18.60;99.90
7622;DHT22;3852;52.284;8.032;2022-08-03T05:06:24;18.60;99.90
7622;DHT22;3852;52.284;8.032;2022-08-03T05:08:50;18.80;99.90
7622;DHT22;3852;52.284;8.032;2022-08-03T05:11:18;18.80;99.90
7622;DHT22;3852;52.284;8.032;2022-08-03T05:13:44;18.90;99.90
7622;DHT22;3852;52.284;8.032;2022-08-03T05:16:11;19.00;99.90
7622;DHT22;3852;52.284;8.032;2022-08-03T05:18:38;19.10;99.90
7622;DHT22;3852;52.284;8.032;2022-08-03T05:21:11;19.20;99.90
7622;DHT22;3852;52.284;8.032;2022-08-03T05:23:39;19.30;99.90
7622;DHT22;3852;52.284;8.032;2022-08-03T05:26:05;19.50;99.90
7622;DHT22;3852;52.284;8.032;2022-08-03T05:28:31;19.60;99.90
7622;DHT22;3852;52.284;8.032;2022-08-03T05:30:57;19.60;99.90
7622;DHT22;3852;52.284;8.032;2022-08-03T05:33:23;19.70;99.90
7622;DHT22;3852;52.284;8.032;2022-08-03T05:35:48;20.00;99.90
7622;DHT22;3852;52.284;8.032;2022-08-03T05:38:15;20.10;99.90
7622;DHT22;3852;52.284;8.032;2022-08-03T05:40:40;20.30;99.90
7622;DHT22;3852;52.284;8.032;2022-08-03T05:43:06;20.50;99.90
7622;DHT22;3852;52.284;8.032;2022-08-03T05:45:32;20.60;99.90
7622;DHT22;3852;52.284;8.032;2022-08-03T05:47:58;20.80;99.90
7622;DHT22;3852;52.284;8.032;2022-08-03T05:50:23;20.90;99.90
7622;DHT22;3852;52.284;8.032;2022-08-03T05:52:49;21.10;99.90
7622;DHT22;3852;52.284;8.032;2022-08-03T05:55:15;21.20;99.90
7622;DHT22;3852;52.284;8.032;2022-08-03T05:57:41;21.40;99.90
7622;DHT22;3852;52.284;8.032;2022-08-03T06:00:09;21.50;99.90
7622;DHT22;3852;52.284;8.032;2022-08-03T06:02:36;21.60;99.90
7622;DHT22;3852;52.284;8.032;2022-08-03T06:05:02;21.70;99.90
7622;DHT22;3852;52.284;8.032;2022-08-03T06:07:28;21.90;99.90
7622;DHT22;3852;52.284;8.032;2022-08-03T06:09:54;22.00;99.90
7622;DHT22;3852;52.284;8.032;2022-08-03T06:12:20;22.10;99.90
7622;DHT22;3852;52.284;8.032;2022-08-03T06:14:46;22.20;99.90
7622;DHT22;3852;52.284;8.032;2022-08-03T06:17:12;22.40;99.90
7622;DHT22;3852;52.284;8.032;2022-08-03T06:19:37;22.40;99.90
7622;DHT22;3852;52.284;8.032;2022-08-03T06:22:03;22.50;99.90
7622;DHT22;3852;52.284;8.032;2022-08-03T06:24:29;22.50;99.90
7622;DHT22;3852;52.284;8.032;2022-08-03T06:26:55;22.60;99.90
7622;DHT22;3852;52.284;8.032;2022-08-03T06:29:21;22.60;99.90
7622;DHT22;3852;52.284;8.032;2022-08-03T06:31:47;22.80;99.90
7622;DHT22;3852;52.284;8.032;2022-08-03T06:34:12;22.80;99.90
7622;DHT22;3852;52.284;8.032;2022-08-03T06:36:38;22.90;99.90
7622;DHT22;3852;52.284;8.032;2022-08-03T06:39:04;23.00;99.90
7622;DHT22;3852;52.284;8.032;2022-08-03T06:41:33;23.10;99.90
7622;DHT22;3852;52.284;8.032;2022-08-03T06:43:59;23.10;99.90
7622;DHT22;3852;52.284;8.032;2022-08-03T06:46:25;23.10;99.90
7622;DHT22;3852;52.284;8.032;2022-08-03T06:48:51;23.20;99.90
7622;DHT22;3852;52.284;8.032;2022-08-03T06:51:17;23.20;99.90
7622;DHT22;3852;52.284;8.032;2022-08-03T06:53:42;23.40;99.90
7622;DHT22;3852;52.284;8.032;2022-08-03T06:56:08;23.60;99.90
7622;DHT22;3852;52.284;8.032;2022-08-03T06:58:34;23.50;99.90
7622;DHT22;3852;52.284;8.032;2022-08-03T07:01:00;23.60;99.90
7622;DHT22;3852;52.284;8.032;2022-08-03T07:03:26;23.60;99.90
7622;DHT22;3852;52.284;8.032;2022-08-03T07:05:51;23.70;99.90
7622;DHT22;3852;52.284;8.032;2022-08-03T07:08:19;24.00;99.90
7622;DHT22;3852;52.284;8.032;2022-08-03T07:10:45;24.00;99.90
7622;DHT22;3852;52.284;8.032;2022-08-03T07:13:11;24.20;99.90
7622;DHT22;3852;52.284;8.032;2022-08-03T07:15:38;24.60;99.90
7622;DHT22;3852;52.284;8.032;2022-08-03T07:18:04;25.00;99.90
7622;DHT22;3852;52.284;8.032;2022-08-03T07:20:31;25.20;99.90
7622;DHT22;3852;52.284;8.032;2022-08-03T07:22:57;25.50;99.90
7622;DHT22;3852;52.284;8.032;2022-08-03T07:25:23;25.80;99.90
7622;DHT22;3852;52.284;8.032;2022-08-03T07:27:49;25.80;99.90
7622;DHT22;3852;52.284;8.032;2022-08-03T07:30:15;25.70;99.90
7622;DHT22;3852;52.284;8.032;2022-08-03T07:32:42;25.50;99.90
7622;DHT22;3852;52.284;8.032;2022-08-03T07:35:09;25.50;99.90
7622;DHT22;3852;52.284;8.032;2022-08-03T07:37:35;25.50;99.90
7622;DHT22;3852;52.284;8.032;2022-08-03T07:40:03;25.40;99.90
7622;DHT22;3852;52.284;8.032;2022-08-03T07:42:30;25.30;99.90
7622;DHT22;3852;52.284;8.032;2022-08-03T07:44:57;25.30;99.90
7622;DHT22;3852;52.284;8.032;2022-08-03T07:47:25;25.30;99.90
7622;DHT22;3852;52.284;8.032;2022-08-03T07:49:53;25.40;99.90
7622;DHT22;3852;52.284;8.032;2022-08-03T07:52:19;25.40;99.90
7622;DHT22;3852;52.284;8.032;2022-08-03T07:55:05;25.50;99.90
7622;DHT22;3852;52.284;8.032;2022-08-03T07:57:31;25.60;99.90
7622;DHT22;3852;52.284;8.032;2022-08-03T07:59:57;25.70;99.90
7622;DHT22;3852;52.284;8.032;2022-08-03T08:02:23;25.70;99.90
7622;DHT22;3852;52.284;8.032;2022-08-03T08:04:49;25.80;99.90
7622;DHT22;3852;52.284;8.032;2022-08-03T08:07:15;25.90;99.90
7622;DHT22;3852;52.284;8.032;2022-08-03T08:09:41;26.10;99.90
7622;DHT22;3852;52.284;8.032;2022-08-03T08:12:07;26.10;99.90
7622;DHT22;3852;52.284;8.032;2022-08-03T08:14:34;26.20;99.90
7622;DHT22;3852;52.284;8.032;2022-08-03T08:17:00;26.10;99.90
7622;DHT22;3852;52.284;8.032;2022-08-03T08:19:26;26.10;99.90
7622;DHT22;3852;52.284;8.032;2022-08-03T08:21:52;26.20;99.90
7622;DHT22;3852;52.284;8.032;2022-08-03T08:24:17;26.20;99.90
7622;DHT22;3852;52.284;8.032;2022-08-03T08:26:43;26.30;99.90
7622;DHT22;3852;52.284;8.032;2022-08-03T08:29:09;26.30;99.90
7622;DHT22;3852;52.284;8.032;2022-08-03T08:31:35;26.50;99.90
7622;DHT22;3852;52.284;8.032;2022-08-03T08:34:01;26.50;99.90
7622;DHT22;3852;52.284;8.032;2022-08-03T08:36:31;26.50;99.90
7622;DHT22;3852;52.284;8.032;2022-08-03T08:38:58;26.70;99.90
7622;DHT22;3852;52.284;8.032;2022-08-03T08:41:24;26.80;99.90
7622;DHT22;3852;52.284;8.032;2022-08-03T08:43:53;27.00;99.90
7622;DHT22;3852;52.284;8.032;2022-08-03T08:46:19;27.00;99.90
7622;DHT22;3852;52.284;8.032;2022-08-03T08:48:47;27.00;99.90
7622;DHT22;3852;52.284;8.032;2022-08-03T08:51:15;27.20;99.90
7622;DHT22;3852;52.284;8.032;2022-08-03T08:53:48;27.20;99.90
7622;DHT22;3852;52.284;8.032;2022-08-03T08:56:16;27.30;99.90
7622;DHT22;3852;52.284;8.032;2022-08-03T08:58:53;27.50;99.90
7622;DHT22;3852;52.284;8.032;2022-08-03T09:01:23;27.50;99.90
7622;DHT22;3852;52.284;8.032;2022-08-03T09:03:52;27.30;99.90
7622;DHT22;3852;52.284;8.032;2022-08-03T09:06:20;27.40;99.90
7622;DHT22;3852;52.284;8.032;2022-08-03T09:08:47;27.30;99.90
7622;DHT22;3852;52.284;8.032;2022-08-03T09:11:13;27.10;99.90
7622;DHT22;3852;52.284;8.032;2022-08-03T09:13:39;27.20;99.90
7622;DHT22;3852;52.284;8.032;2022-08-03T09:16:08;27.30;99.90
7622;DHT22;3852;52.284;8.032;2022-08-03T09:18:39;27.50;99.90
7622;DHT22;3852;52.284;8.032;2022-08-03T09:21:18;27.50;99.90
7622;DHT22;3852;52.284;8.032;2022-08-03T09:23:52;27.70;99.90
7622;DHT22;3852;52.284;8.032;2022-08-03T09:26:20;27.90;99.90
7622;DHT22;3852;52.284;8.032;2022-08-03T09:28:57;28.00;99.90
7622;DHT22;3852;52.284;8.032;2022-08-03T09:31:35;28.20;99.90
7622;DHT22;3852;52.284;8.032;2022-08-03T09:34:07;27.90;99.90
7622;DHT22;3852;52.284;8.032;2022-08-03T09:39:26;27.90;99.90
7622;DHT22;3852;52.284;8.032;2022-08-03T09:44:49;28.10;99.90
7622;DHT22;3852;52.284;8.032;2022-08-03T09:47:28;28.40;99.90
7622;DHT22;3852;52.284;8.032;2022-08-03T09:49:58;28.50;99.90
7622;DHT22;3852;52.284;8.032;2022-08-03T09:52:32;28.40;99.90
7622;DHT22;3852;52.284;8.032;2022-08-03T09:55:08;28.40;99.90
7622;DHT22;3852;52.284;8.032;2022-08-03T09:57:38;28.40;99.90
7622;DHT22;3852;52.284;8.032;2022-08-03T10:00:12;28.40;99.90
7622;DHT22;3852;52.284;8.032;2022-08-03T10:02:40;28.30;99.90
7622;DHT22;3852;52.284;8.032;2022-08-03T10:05:08;28.40;99.90
7622;DHT22;3852;52.284;8.032;2022-08-03T10:07:44;28.40;99.90
7622;DHT22;3852;52.284;8.032;2022-08-03T10:10:12;28.40;99.90
7622;DHT22;3852;52.284;8.032;2022-08-03T10:12:39;28.50;99.90
7622;DHT22;3852;52.284;8.032;2022-08-03T10:15:07;28.90;99.90
7622;DHT22;3852;52.284;8.032;2022-08-03T10:17:34;29.10;99.90
7622;DHT22;3852;52.284;8.032;2022-08-03T10:20:00;29.10;99.90
7622;DHT22;3852;52.284;8.032;2022-08-03T10:22:32;29.10;99.90
7622;DHT22;3852;52.284;8.032;2022-08-03T10:25:03;29.00;99.90
7622;DHT22;3852;52.284;8.032;2022-08-03T10:27:34;28.90;99.90
7622;DHT22;3852;52.284;8.032;2022-08-03T10:30:04;28.70;99.90
7622;DHT22;3852;52.284;8.032;2022-08-03T10:35:10;28.50;99.90
7622;DHT22;3852;52.284;8.032;2022-08-03T10:37:42;28.40;99.90
7622;DHT22;3852;52.284;8.032;2022-08-03T10:40:13;28.40;99.90
7622;DHT22;3852;52.284;8.032;2022-08-03T10:42:42;28.40;99.90
7622;DHT22;3852;52.284;8.032;2022-08-03T10:45:19;28.20;99.90
7622;DHT22;3852;52.284;8.032;2022-08-03T10:47:49;28.20;99.90
7622;DHT22;3852;52.284;8.032;2022-08-03T10:50:16;28.10;99.90
7622;DHT22;3852;52.284;8.032;2022-08-03T10:53:02;28.10;99.90
7622;DHT22;3852;52.284;8.032;2022-08-03T10:55:44;28.20;99.90
7622;DHT22;3852;52.284;8.032;2022-08-03T10:58:48;28.30;99.90
7622;DHT22;3852;52.284;8.032;2022-08-03T11:01:47;28.40;99.90
7622;DHT22;3852;52.284;8.032;2022-08-03T11:04:19;28.50;99.90
7622;DHT22;3852;52.284;8.032;2022-08-03T11:09:44;28.50;99.90
7622;DHT22;3852;52.284;8.032;2022-08-03T11:12:25;28.80;99.90
7622;DHT22;3852;52.284;8.032;2022-08-03T11:14:54;28.80;99.90
7622;DHT22;3852;52.284;8.032;2022-08-03T11:17:21;28.70;99.90
7622;DHT22;3852;52.284;8.032;2022-08-03T11:19:49;28.90;99.90
7622;DHT22;3852;52.284;8.032;2022-08-03T11:22:17;29.00;99.90
7622;DHT22;3852;52.284;8.032;2022-08-03T11:27:20;29.00;99.90
7622;DHT22;3852;52.284;8.032;2022-08-03T11:30:06;29.10;99.90
7622;DHT22;3852;52.284;8.032;2022-08-03T11:40:46;29.70;99.90
7622;DHT22;3852;52.284;8.032;2022-08-03T11:48:36;29.50;99.90
7622;DHT22;3852;52.284;8.032;2022-08-03T11:51:06;29.60;99.90
7622;DHT22;3852;52.284;8.032;2022-08-03T11:53:32;29.90;99.90
7622;DHT22;3852;52.284;8.032;2022-08-03T11:56:00;30.10;99.90
7622;DHT22;3852;52.284;8.032;2022-08-03T11:58:27;30.20;99.90
7622;DHT22;3852;52.284;8.032;2022-08-03T12:01:03;30.40;99.90
7622;DHT22;3852;52.284;8.032;2022-08-03T12:03:32;30.50;99.90
7622;DHT22;3852;52.284;8.032;2022-08-03T12:05:59;30.70;99.90
7622;DHT22;3852;52.284;8.032;2022-08-03T12:08:31;30.70;99.90
7622;DHT22;3852;52.284;8.032;2022-08-03T12:11:00;30.80;99.90
7622;DHT22;3852;52.284;8.032;2022-08-03T12:13:38;30.80;99.90
7622;DHT22;3852;52.284;8.032;2022-08-03T12:16:08;30.80;99.90
7622;DHT22;3852;52.284;8.032;2022-08-03T12:18:34;30.80;99.90
7622;DHT22;3852;52.284;8.032;2022-08-03T12:21:11;30.90;99.90
7622;DHT22;3852;52.284;8.032;2022-08-03T12:23:38;31.10;99.90
7622;DHT22;3852;52.284;8.032;2022-08-03T12:26:07;31.20;99.90
7622;DHT22;3852;52.284;8.032;2022-08-03T12:28:34;31.20;99.90
7622;DHT22;3852;52.284;8.032;2022-08-03T12:31:06;31.10;99.90
7622;DHT22;3852;52.284;8.032;2022-08-03T12:36:19;30.80;99.90
7622;DHT22;3852;52.284;8.032;2022-08-03T12:39:00;30.80;99.90
7622;DHT22;3852;52.284;8.032;2022-08-03T12:41:34;30.90;99.90
7622;DHT22;3852;52.284;8.032;2022-08-03T12:44:03;31.10;99.90
7622;DHT22;3852;52.284;8.032;2022-08-03T12:46:38;31.10;99.90
7622;DHT22;3852;52.284;8.032;2022-08-03T12:49:14;31.00;99.90
7622;DHT22;3852;52.284;8.032;2022-08-03T12:54:07;31.00;99.90
7622;DHT22;3852;52.284;8.032;2022-08-03T12:56:35;31.20;99.90
7622;DHT22;3852;52.284;8.032;2022-08-03T12:59:32;31.40;99.90
7622;DHT22;3852;52.284;8.032;2022-08-03T13:02:18;31.50;99.90
7622;DHT22;3852;52.284;8.032;2022-08-03T13:04:46;31.20;99.90
7622;DHT22;3852;52.284;8.032;2022-08-03T13:07:13;31.20;99.90
7622;DHT22;3852;52.284;8.032;2022-08-03T13:09:46;31.00;99.90
7622;DHT22;3852;52.284;8.032;2022-08-03T13:12:15;31.00;99.90
7622;DHT22;3852;52.284;8.032;2022-08-03T13:14:45;31.10;99.90
7622;DHT22;3852;52.284;8.032;2022-08-03T13:17:12;31.20;99.90
7622;DHT22;3852;52.284;8.032;2022-08-03T13:19:41;31.20;99.90
7622;DHT22;3852;52.284;8.032;2022-08-03T13:22:33;31.30;99.90
7622;DHT22;3852;52.284;8.032;2022-08-03T13:25:00;31.30;99.90
7622;DHT22;3852;52.284;8.032;2022-08-03T13:27:28;31.50;99.90
7622;DHT22;3852;52.284;8.032;2022-08-03T13:29:55;31.40;99.90
7622;DHT22;3852;52.284;8.032;2022-08-03T13:32:21;31.40;99.90
7622;DHT22;3852;52.284;8.032;2022-08-03T13:34:47;31.20;99.90
7622;DHT22;3852;52.284;8.032;2022-08-03T13:37:14;31.20;99.90
7622;DHT22;3852;52.284;8.032;2022-08-03T13:39:40;31.30;99.90
7622;DHT22;3852;52.284;8.032;2022-08-03T13:42:06;31.40;99.90
7622;DHT22;3852;52.284;8.032;2022-08-03T13:44:33;31.40;99.90
7622;DHT22;3852;52.284;8.032;2022-08-03T13:47:01;31.50;99.90
7622;DHT22;3852;52.284;8.032;2022-08-03T13:49:27;31.60;99.90
7622;DHT22;3852;52.284;8.032;2022-08-03T13:51:55;31.90;99.90
7622;DHT22;3852;52.284;8.032;2022-08-03T13:54:21;31.90;99.90
7622;DHT22;3852;52.284;8.032;2022-08-03T13:56:47;31.90;99.90
7622;DHT22;3852;52.284;8.032;2022-08-03T13:59:23;32.10;99.90
7622;DHT22;3852;52.284;8.032;2022-08-03T14:01:52;32.00;99.90
7622;DHT22;3852;52.284;8.032;2022-08-03T14:04:19;32.10;99.90
7622;DHT22;3852;52.284;8.032;2022-08-03T14:06:45;31.90;99.90
7622;DHT22;3852;52.284;8.032;2022-08-03T14:09:12;31.80;99.90
7622;DHT22;3852;52.284;8.032;2022-08-03T14:11:39;31.90;99.90
7622;DHT22;3852;52.284;8.032;2022-08-03T14:14:05;31.80;99.90
7622;DHT22;3852;52.284;8.032;2022-08-03T14:16:31;31.70;99.90
7622;DHT22;3852;52.284;8.032;2022-08-03T14:18:57;31.50;99.90
7622;DHT22;3852;52.284;8.032;2022-08-03T14:21:22;31.60;99.90
7622;DHT22;3852;52.284;8.032;2022-08-03T14:23:51;31.80;99.90
7622;DHT22;3852;52.284;8.032;2022-08-03T14:26:16;32.00;99.90
7622;DHT22;3852;52.284;8.032;2022-08-03T14:28:45;32.10;99.90
7622;DHT22;3852;52.284;8.032;2022-08-03T14:31:11;32.10;99.90
7622;DHT22;3852;52.284;8.032;2022-08-03T14:33:37;32.00;99.90
7622;DHT22;3852;52.284;8.032;2022-08-03T14:36:03;31.90;99.90
7622;DHT22;3852;52.284;8.032;2022-08-03T14:38:29;31.90;99.90
7622;DHT22;3852;52.284;8.032;2022-08-03T14:40:56;31.70;99.90
7622;DHT22;3852;52.284;8.032;2022-08-03T14:43:22;31.70;99.90
7622;DHT22;3852;52.284;8.032;2022-08-03T14:45:50;31.70;99.90
7622;DHT22;3852;52.284;8.032;2022-08-03T14:48:20;31.70;99.90
7622;DHT22;3852;52.284;8.032;2022-08-03T14:50:46;31.70;99.90
7622;DHT22;3852;52.284;8.032;2022-08-03T14:53:12;31.80;99.90
7622;DHT22;3852;52.284;8.032;2022-08-03T14:55:38;31.70;99.90
7622;DHT22;3852;52.284;8.032;2022-08-03T14:58:04;31.80;99.90
7622;DHT22;3852;52.284;8.032;2022-08-03T15:00:32;31.80;99.90
7622;DHT22;3852;52.284;8.032;2022-08-03T15:02:58;31.90;99.90
7622;DHT22;3852;52.284;8.032;2022-08-03T15:05:24;32.20;99.90
7622;DHT22;3852;52.284;8.032;2022-08-03T15:07:50;32.00;99.90
7622;DHT22;3852;52.284;8.032;2022-08-03T15:10:16;32.10;99.90
7622;DHT22;3852;52.284;8.032;2022-08-03T15:12:42;32.40;99.90
7622;DHT22;3852;52.284;8.032;2022-08-03T15:15:08;32.70;99.90
7622;DHT22;3852;52.284;8.032;2022-08-03T15:17:34;32.70;99.90
7622;DHT22;3852;52.284;8.032;2022-08-03T15:20:00;32.90;99.90
7622;DHT22;3852;52.284;8.032;2022-08-03T15:22:26;33.10;99.90
7622;DHT22;3852;52.284;8.032;2022-08-03T15:24:52;33.20;99.90
7622;DHT22;3852;52.284;8.032;2022-08-03T15:27:21;33.40;99.90
7622;DHT22;3852;52.284;8.032;2022-08-03T15:29:47;33.40;99.90
7622;DHT22;3852;52.284;8.032;2022-08-03T15:32:13;33.40;99.90
7622;DHT22;3852;52.284;8.032;2022-08-03T15:34:39;33.40;99.90
7622;DHT22;3852;52.284;8.032;2022-08-03T15:37:05;33.40;99.90
7622;DHT22;3852;52.284;8.032;2022-08-03T15:39:31;33.30;99.90
7622;DHT22;3852;52.284;8.032;2022-08-03T15:41:57;33.00;99.90
7622;DHT22;3852;52.284;8.032;2022-08-03T15:44:23;33.00;99.90
7622;DHT22;3852;52.284;8.032;2022-08-03T15:46:51;33.00;99.90
7622;DHT22;3852;52.284;8.032;2022-08-03T15:49:17;33.00;99.90
7622;DHT22;3852;52.284;8.032;2022-08-03T15:51:45;32.70;99.90
7622;DHT22;3852;52.284;8.032;2022-08-03T15:54:11;32.40;99.90
7622;DHT22;3852;52.284;8.032;2022-08-03T15:56:37;32.40;99.90
7622;DHT22;3852;52.284;8.032;2022-08-03T15:59:03;32.30;99.90
7622;DHT22;3852;52.284;8.032;2022-08-03T16:01:29;32.20;99.90
7622;DHT22;3852;52.284;8.032;2022-08-03T16:03:55;32.20;99.90
7622;DHT22;3852;52.284;8.032;2022-08-03T16:06:21;32.20;99.90
7622;DHT22;3852;52.284;8.032;2022-08-03T16:08:47;32.10;99.90
7622;DHT22;3852;52.284;8.032;2022-08-03T16:11:12;32.10;99.90
7622;DHT22;3852;52.284;8.032;2022-08-03T16:13:38;32.00;99.90
7622;DHT22;3852;52.284;8.032;2022-08-03T16:16:04;31.90;99.90
7622;DHT22;3852;52.284;8.032;2022-08-03T16:18:30;31.90;99.90
7622;DHT22;3852;52.284;8.032;2022-08-03T16:20:57;32.00;99.90
7622;DHT22;3852;52.284;8.032;2022-08-03T16:23:23;32.00;99.90
7622;DHT22;3852;52.284;8.032;2022-08-03T16:25:49;31.90;99.90
7622;DHT22;3852;52.284;8.032;2022-08-03T16:28:15;31.90;99.90
7622;DHT22;3852;52.284;8.032;2022-08-03T16:30:44;31.90;99.90
7622;DHT22;3852;52.284;8.032;2022-08-03T16:33:11;31.80;99.90
7622;DHT22;3852;52.284;8.032;2022-08-03T16:35:38;31.90;99.90
7622;DHT22;3852;52.284;8.032;2022-08-03T16:38:05;31.90;99.90
7622;DHT22;3852;52.284;8.032;2022-08-03T16:40:31;31.80;99.90
7622;DHT22;3852;52.284;8.032;2022-08-03T16:42:57;31.80;99.90
7622;DHT22;3852;52.284;8.032;2022-08-03T16:45:23;31.80;99.90
7622;DHT22;3852;52.284;8.032;2022-08-03T16:47:50;31.80;99.90
7622;DHT22;3852;52.284;8.032;2022-08-03T16:50:16;31.70;99.90
7622;DHT22;3852;52.284;8.032;2022-08-03T16:52:42;31.70;99.90